createdAt,value
2023-09-28T00:00:28.571Z,20.94
2023-09-28T00:02:08.478Z,20.92
2023-09-28T00:03:48.417Z,20.89
2023-09-28T00:05:28.070Z,20.86
2023-09-28T00:07:07.835Z,20.87
2023-09-28T00:08:47.486Z,20.85
2023-09-28T00:10:27.313Z,20.82
2023-09-28T00:12:07.060Z,20.78
2023-09-28T00:13:46.697Z,20.75
2023-09-28T00:15:26.776Z,20.73
2023-09-28T00:17:06.400Z,20.71
2023-09-28T00:18:46.128Z,20.7
2023-09-28T00:20:25.757Z,20.69
2023-09-28T00:22:05.771Z,20.64
2023-09-28T00:23:45.509Z,20.64
2023-09-28T00:25:25.183Z,20.62
2023-09-28T00:27:04.898Z,20.58
2023-09-28T00:28:44.597Z,20.58
2023-09-28T00:30:24.437Z,20.54
2023-09-28T00:32:04.183Z,20.52
2023-09-28T00:33:43.938Z,20.48
2023-09-28T00:35:23.749Z,20.46
2023-09-28T00:37:03.586Z,20.45
2023-09-28T00:38:43.370Z,20.45
2023-09-28T00:40:23.170Z,20.42
2023-09-28T00:43:42.621Z,20.36
2023-09-28T00:45:22.423Z,20.37
2023-09-28T00:47:02.114Z,20.32
2023-09-28T00:48:41.804Z,20.29
2023-09-28T00:50:21.581Z,20.28
2023-09-28T00:52:01.581Z,20.29
2023-09-28T00:53:41.246Z,20.24
2023-09-28T00:55:21.016Z,20.24
2023-09-28T00:57:00.762Z,20.23
2023-09-28T00:58:40.542Z,20.18
2023-09-28T01:00:20.407Z,20.16
2023-09-28T01:02:00.182Z,20.14
2023-09-28T01:03:39.738Z,20.15
2023-09-28T01:06:59.254Z,20.08
2023-09-28T01:08:39.274Z,20.09
2023-09-28T01:10:18.798Z,20.06
2023-09-28T01:11:58.681Z,20.04
2023-09-28T01:13:38.497Z,20.03
2023-09-28T01:16:58.022Z,20
2023-09-28T01:18:37.791Z,19.95
2023-09-28T01:20:17.528Z,19.93
2023-09-28T01:21:57.210Z,19.92
2023-09-28T01:23:37.036Z,19.93
2023-09-28T01:25:16.691Z,19.89
2023-09-28T01:26:56.470Z,19.87
2023-09-28T01:28:36.417Z,19.87
2023-09-28T01:30:15.979Z,19.85
2023-09-28T01:31:55.833Z,19.81
2023-09-28T01:33:35.570Z,19.79
2023-09-28T01:35:15.487Z,19.78
2023-09-28T01:36:55.234Z,19.76
2023-09-28T01:38:34.986Z,19.74
2023-09-28T01:40:14.599Z,19.74
2023-09-28T01:41:54.371Z,19.71
2023-09-28T01:43:34.214Z,19.68
2023-09-28T01:45:14.111Z,19.68
2023-09-28T01:46:53.795Z,19.64
2023-09-28T01:48:33.802Z,19.62
2023-09-28T01:50:13.240Z,19.61
2023-09-28T01:51:53.218Z,19.61
2023-09-28T01:53:32.808Z,19.58
2023-09-28T01:55:12.522Z,19.56
2023-09-28T01:56:52.279Z,19.54
2023-09-28T01:58:32.052Z,19.53
2023-09-28T02:00:11.818Z,19.5
2023-09-28T02:01:51.577Z,19.48
2023-09-28T02:03:31.349Z,19.49
2023-09-28T02:05:11.240Z,19.45
2023-09-28T02:06:50.897Z,19.44
2023-09-28T02:08:30.659Z,19.42
2023-09-28T02:10:10.425Z,19.43
2023-09-28T02:11:50.192Z,19.4
2023-09-28T02:13:29.962Z,19.37
2023-09-28T02:15:09.754Z,19.37
2023-09-28T02:16:49.506Z,19.36
2023-09-28T02:18:29.260Z,19.33
2023-09-28T02:20:09.043Z,19.29
2023-09-28T02:21:48.799Z,19.31
2023-09-28T02:23:28.650Z,19.27
2023-09-28T02:25:08.342Z,19.27
2023-09-28T02:26:48.102Z,19.26
2023-09-28T02:28:27.876Z,19.24
2023-09-28T02:30:07.643Z,19.2
2023-09-28T02:31:47.404Z,19.2
2023-09-28T02:33:27.174Z,19.2
2023-09-28T02:35:06.939Z,19.15
2023-09-28T02:36:46.707Z,19.12
2023-09-28T02:38:26.485Z,19.14
2023-09-28T02:40:06.244Z,19.12
2023-09-28T02:41:46.020Z,19.12
2023-09-28T02:43:25.774Z,19.08
2023-09-28T02:45:05.558Z,19.08
2023-09-28T02:46:45.340Z,19.04
2023-09-28T02:50:04.872Z,19.02
2023-09-28T02:51:44.710Z,19.01
2023-09-28T02:53:24.396Z,18.98
2023-09-28T02:55:04.167Z,18.95
2023-09-28T02:56:43.934Z,18.95
2023-09-28T02:58:23.691Z,18.92
2023-09-28T03:00:03.455Z,18.94
2023-09-28T03:01:43.224Z,18.89
2023-09-28T03:03:23.039Z,18.87
2023-09-28T03:05:02.772Z,18.86
2023-09-28T03:06:42.536Z,18.86
2023-09-28T03:08:22.297Z,18.85
2023-09-28T03:10:02.075Z,18.84
2023-09-28T03:11:41.825Z,18.82
2023-09-28T03:13:21.599Z,18.79
2023-09-28T03:15:01.362Z,18.79
2023-09-28T03:16:41.126Z,18.78
2023-09-28T03:18:20.916Z,18.73
2023-09-28T03:20:00.659Z,18.74
2023-09-28T03:21:40.428Z,18.7
2023-09-28T03:23:20.204Z,18.7
2023-09-28T03:24:59.966Z,18.67
2023-09-28T03:26:39.740Z,18.66
2023-09-28T03:28:19.494Z,18.65
2023-09-28T03:29:59.271Z,18.64
2023-09-28T03:31:39.027Z,18.62
2023-09-28T03:33:18.798Z,18.59
2023-09-28T03:34:58.568Z,18.6
2023-09-28T03:36:38.357Z,18.58
2023-09-28T03:38:18.107Z,18.56
2023-09-28T03:39:57.869Z,18.54
2023-09-28T03:41:37.629Z,18.53
2023-09-28T03:43:17.405Z,18.5
2023-09-28T03:44:57.172Z,18.49
2023-09-28T03:46:36.939Z,18.49
2023-09-28T03:48:16.711Z,18.45
2023-09-28T03:49:56.474Z,18.45
2023-09-28T03:51:36.235Z,18.44
2023-09-28T03:53:16.018Z,18.42
2023-09-28T03:54:55.779Z,18.42
2023-09-28T03:56:35.532Z,18.39
2023-09-28T03:58:15.312Z,18.4
2023-09-28T03:59:55.074Z,18.36
2023-09-28T04:01:34.828Z,18.35
2023-09-28T04:03:14.605Z,18.33
2023-09-28T04:04:54.377Z,18.31
2023-09-28T04:06:34.341Z,18.29
2023-09-28T04:08:13.898Z,18.28
2023-09-28T04:09:53.684Z,18.27
2023-09-28T04:13:13.204Z,18.26
2023-09-28T04:14:52.986Z,18.24
2023-09-28T04:16:32.740Z,18.2
2023-09-28T04:18:12.504Z,18.2
2023-09-28T04:19:52.276Z,18.2
2023-09-28T04:21:32.037Z,18.2
2023-09-28T04:23:11.798Z,18.15
2023-09-28T04:24:51.615Z,18.15
2023-09-28T04:26:31.344Z,18.14
2023-09-28T04:28:11.116Z,18.12
2023-09-28T04:29:50.879Z,18.12
2023-09-28T04:31:30.645Z,18.11
2023-09-28T04:33:10.419Z,18.09
2023-09-28T04:34:50.191Z,18.06
2023-09-28T04:36:29.944Z,18.06
2023-09-28T04:38:09.714Z,18.06
2023-09-28T04:39:49.472Z,18.06
2023-09-28T04:41:29.242Z,18.01
2023-09-28T04:43:09.012Z,18.01
2023-09-28T04:44:48.782Z,18.01
2023-09-28T04:46:28.545Z,18.03
2023-09-28T04:48:08.324Z,18.04
2023-09-28T04:49:48.090Z,18.03
2023-09-28T04:51:27.852Z,18.02
2023-09-28T04:53:07.627Z,18.04
2023-09-28T04:54:47.396Z,18.08
2023-09-28T04:56:27.149Z,18.04
2023-09-28T04:58:06.919Z,18.06
2023-09-28T04:59:46.691Z,18.06
2023-09-28T05:01:26.462Z,18.09
2023-09-28T05:03:06.230Z,18.08
2023-09-28T05:04:45.974Z,18.1
2023-09-28T05:06:25.759Z,18.1
2023-09-28T05:08:05.533Z,18.08
2023-09-28T05:09:45.304Z,18.07
2023-09-28T05:11:25.056Z,18.1
2023-09-28T05:13:04.829Z,18.07
2023-09-28T05:16:24.361Z,18.11
2023-09-28T05:18:04.124Z,18.11
2023-09-28T05:19:43.938Z,18.08
2023-09-28T05:21:23.678Z,18.09
2023-09-28T05:23:03.442Z,18.09
2023-09-28T05:24:43.206Z,18.1
2023-09-28T05:26:22.987Z,18.08
2023-09-28T05:28:02.759Z,18.09
2023-09-28T05:29:42.519Z,18.11
2023-09-28T05:31:22.294Z,18.11
2023-09-28T05:33:02.065Z,18.08
2023-09-28T05:34:41.819Z,18.08
2023-09-28T05:36:21.598Z,18.1
2023-09-28T05:38:01.369Z,18.08
2023-09-28T05:39:41.128Z,18.06
2023-09-28T05:41:20.896Z,18.09
2023-09-28T05:43:00.761Z,18.1
2023-09-28T05:44:40.450Z,18.1
2023-09-28T05:46:20.218Z,18.07
2023-09-28T05:48:00.117Z,18.06
2023-09-28T05:49:39.764Z,18.07
2023-09-28T05:52:59.301Z,18.1
2023-09-28T05:54:39.413Z,18.04
2023-09-28T05:56:19.097Z,18.07
2023-09-28T05:57:58.618Z,18.07
2023-09-28T05:59:38.427Z,18.04
2023-09-28T06:01:18.142Z,18.03
2023-09-28T06:02:57.933Z,18.03
2023-09-28T06:04:37.689Z,18.07
2023-09-28T06:06:17.450Z,18.04
2023-09-28T06:07:57.242Z,18.04
2023-09-28T06:09:36.994Z,18.08
2023-09-28T06:11:16.788Z,18.03
2023-09-28T06:12:56.552Z,18.04
2023-09-28T06:14:36.312Z,18.03
2023-09-28T06:16:16.074Z,18.02
2023-09-28T06:17:55.858Z,18.04
2023-09-28T06:19:35.625Z,18.04
2023-09-28T06:21:15.396Z,18.03
2023-09-28T06:22:55.163Z,18.04
2023-09-28T06:24:34.927Z,18.03
2023-09-28T06:26:14.711Z,18.03
2023-09-28T06:27:54.664Z,18.02
2023-09-28T06:29:34.262Z,18.04
2023-09-28T06:31:14.014Z,18.07
2023-09-28T06:32:53.806Z,18.06
2023-09-28T06:34:33.914Z,18.06
2023-09-28T06:36:13.338Z,18.08
2023-09-28T06:37:53.101Z,18.06
2023-09-28T06:39:32.999Z,18.07
2023-09-28T06:41:12.715Z,18.09
2023-09-28T06:42:52.405Z,18.07
2023-09-28T06:44:32.179Z,18.09
2023-09-28T06:46:11.940Z,18.1
2023-09-28T06:47:51.725Z,18.15
2023-09-28T06:49:31.490Z,18.17
2023-09-28T06:51:11.252Z,18.16
2023-09-28T06:52:51.049Z,18.19
2023-09-28T06:54:30.802Z,18.19
2023-09-28T06:56:10.557Z,18.2
2023-09-28T06:57:50.343Z,18.2
2023-09-28T06:59:30.129Z,18.23
2023-09-28T07:01:09.876Z,18.24
2023-09-28T07:02:49.673Z,18.25
2023-09-28T07:04:29.447Z,18.24
2023-09-28T07:06:09.233Z,18.24
2023-09-28T07:07:48.961Z,18.27
2023-09-28T07:09:28.737Z,18.28
2023-09-28T07:11:08.521Z,18.29
2023-09-28T07:12:48.358Z,18.28
2023-09-28T07:14:28.080Z,18.31
2023-09-28T07:16:07.822Z,18.33
2023-09-28T07:17:47.645Z,18.33
2023-09-28T07:19:27.361Z,18.36
2023-09-28T07:22:46.899Z,18.36
2023-09-28T07:24:26.663Z,18.36
2023-09-28T07:26:06.437Z,18.37
2023-09-28T07:27:46.199Z,18.37
2023-09-28T07:29:25.976Z,18.41
2023-09-28T07:32:45.552Z,18.43
2023-09-28T07:34:25.386Z,18.45
2023-09-28T07:36:05.065Z,18.45
2023-09-28T07:37:44.846Z,18.5
2023-09-28T07:39:24.594Z,18.5
2023-09-28T07:41:04.375Z,18.51
2023-09-28T07:42:44.192Z,18.51
2023-09-28T07:44:23.939Z,18.54
2023-09-28T07:46:03.689Z,18.59
2023-09-28T07:47:43.515Z,18.57
2023-09-28T07:49:23.204Z,18.6
2023-09-28T07:51:03.028Z,18.6
2023-09-28T07:52:42.772Z,18.66
2023-09-28T07:54:22.520Z,18.7
2023-09-28T07:56:02.298Z,18.73
2023-09-28T07:57:42.055Z,18.74
2023-09-28T07:59:21.822Z,18.82
2023-09-28T08:01:01.654Z,18.85
2023-09-28T08:02:41.439Z,18.86
2023-09-28T08:04:21.151Z,18.91
2023-09-28T08:06:01.204Z,18.95
2023-09-28T08:07:40.692Z,18.99
2023-09-28T08:09:20.504Z,19.04
2023-09-28T08:11:00.479Z,19.06
2023-09-28T08:12:40.047Z,19.11
2023-09-28T08:15:59.748Z,19.21
2023-09-28T08:17:39.443Z,19.24
2023-09-28T08:19:19.096Z,19.32
2023-09-28T08:20:59.025Z,19.35
2023-09-28T08:22:38.706Z,19.37
2023-09-28T08:24:18.393Z,19.45
2023-09-28T08:25:58.249Z,19.53
2023-09-28T08:27:38.111Z,19.57
2023-09-28T08:29:17.763Z,19.62
2023-09-28T08:30:57.563Z,19.66
2023-09-28T08:32:37.325Z,19.7
2023-09-28T08:34:17.019Z,19.76
2023-09-28T08:35:56.881Z,19.82
2023-09-28T08:37:36.814Z,19.87
2023-09-28T08:39:16.395Z,19.89
2023-09-28T08:40:56.169Z,19.98
2023-09-28T08:42:35.993Z,20
2023-09-28T08:44:15.873Z,20.04
2023-09-28T08:45:55.634Z,20.08
2023-09-28T08:47:35.474Z,20.12
2023-09-28T08:49:15.078Z,20.2
2023-09-28T08:50:54.962Z,20.23
2023-09-28T08:54:14.445Z,20.34
2023-09-28T08:55:54.356Z,20.37
2023-09-28T08:57:34.004Z,20.42
2023-09-28T08:59:13.853Z,20.46
2023-09-28T09:00:53.349Z,20.49
2023-09-28T09:02:33.486Z,20.54
2023-09-28T09:04:12.928Z,20.61
2023-09-28T09:07:32.435Z,20.67
2023-09-28T09:09:12.193Z,20.73
2023-09-28T09:10:51.978Z,20.76
2023-09-28T09:12:31.738Z,20.8
2023-09-28T09:14:11.521Z,20.86
2023-09-28T09:15:51.412Z,20.88
2023-09-28T09:17:31.229Z,20.96
2023-09-28T09:19:10.821Z,20.98
2023-09-28T09:20:50.585Z,21.04
2023-09-28T09:22:30.628Z,21.05
2023-09-28T09:24:10.500Z,21.14
2023-09-28T09:25:50.217Z,21.15
2023-09-28T09:27:29.750Z,21.23
2023-09-28T09:29:09.448Z,21.26
2023-09-28T09:30:49.219Z,21.29
2023-09-28T09:32:28.993Z,21.33
2023-09-28T09:34:08.759Z,21.39
2023-09-28T09:35:48.532Z,21.45
2023-09-28T09:37:28.308Z,21.49
2023-09-28T09:39:08.088Z,21.52
2023-09-28T09:40:47.847Z,21.59
2023-09-28T09:42:27.613Z,21.63
2023-09-28T09:44:07.398Z,21.68
2023-09-28T09:45:47.163Z,21.72
2023-09-28T09:47:26.937Z,21.75
2023-09-28T09:49:06.711Z,21.81
2023-09-28T09:50:46.461Z,21.88
2023-09-28T09:52:26.232Z,21.92
2023-09-28T09:54:06.091Z,21.96
2023-09-28T09:55:45.789Z,22.02
2023-09-28T09:57:25.563Z,22.08
2023-09-28T10:00:45.137Z,22.18
2023-09-28T10:02:24.859Z,22.25
2023-09-28T10:04:04.632Z,22.27
2023-09-28T10:05:44.406Z,22.35
2023-09-28T10:07:24.168Z,22.4
2023-09-28T10:09:03.950Z,22.44
2023-09-28T10:10:43.777Z,22.51
2023-09-28T10:12:23.509Z,22.55
2023-09-28T10:14:03.263Z,22.6
2023-09-28T10:15:43.298Z,22.69
2023-09-28T10:17:23.016Z,22.72
2023-09-28T10:19:02.814Z,22.78
2023-09-28T10:20:42.672Z,22.84
2023-09-28T10:22:22.423Z,22.88
2023-09-28T10:24:01.863Z,22.94
2023-09-28T10:25:41.647Z,22.99
2023-09-28T10:29:01.307Z,23.1
2023-09-28T10:30:41.066Z,23.18
2023-09-28T10:32:21.059Z,23.23
2023-09-28T10:34:00.861Z,23.28
2023-09-28T10:35:40.506Z,23.35
2023-09-28T10:37:20.043Z,23.41
2023-09-28T10:38:59.826Z,23.46
2023-09-28T10:40:39.568Z,23.52
2023-09-28T10:42:19.374Z,23.6
2023-09-28T10:43:59.127Z,23.61
2023-09-28T10:45:38.895Z,23.71
2023-09-28T10:47:18.651Z,23.72
2023-09-28T10:48:58.451Z,23.78
2023-09-28T10:50:38.205Z,23.86
2023-09-28T10:52:17.979Z,23.93
2023-09-28T10:53:57.736Z,23.96
2023-09-28T10:55:37.512Z,24.01
2023-09-28T10:57:17.307Z,24.07
2023-09-28T10:58:57.054Z,24.11
2023-09-28T11:00:36.818Z,24.14
2023-09-28T11:02:16.579Z,24.15
2023-09-28T11:03:56.351Z,24.18
2023-09-28T11:05:36.143Z,24.2
2023-09-28T11:07:15.899Z,24.23
2023-09-28T11:08:55.836Z,24.3
2023-09-28T11:10:35.780Z,24.35
2023-09-28T11:12:15.199Z,24.43
2023-09-28T11:13:55.270Z,24.51
2023-09-28T11:15:35.038Z,24.61
2023-09-28T11:17:14.543Z,24.66
2023-09-28T11:18:54.559Z,24.71
2023-09-28T11:20:34.100Z,24.79
2023-09-28T11:22:13.878Z,24.88
2023-09-28T11:23:53.773Z,24.94
2023-09-28T11:25:33.416Z,24.98
2023-09-28T11:27:13.272Z,25.05
2023-09-28T11:28:53.053Z,25.1
2023-09-28T11:30:32.691Z,25.18
2023-09-28T11:32:12.614Z,25.22
2023-09-28T11:33:52.488Z,25.28
2023-09-28T11:35:32.159Z,25.36
2023-09-28T11:37:11.825Z,25.41
2023-09-28T11:38:51.639Z,25.47
2023-09-28T11:40:31.568Z,25.52
2023-09-28T11:42:11.061Z,25.58
2023-09-28T11:43:51.062Z,25.62
2023-09-28T11:45:30.623Z,25.68
2023-09-28T11:47:10.384Z,25.73
2023-09-28T11:48:50.159Z,25.81
2023-09-28T11:50:30.010Z,25.88
2023-09-28T11:52:09.935Z,25.92
2023-09-28T11:53:49.775Z,25.96
2023-09-28T11:55:29.401Z,26.02
2023-09-28T11:57:09.008Z,26.07
2023-09-28T11:58:48.777Z,26.16
2023-09-28T12:00:28.677Z,26.17
2023-09-28T12:02:08.315Z,26.22
2023-09-28T12:03:48.238Z,26.29
2023-09-28T12:05:27.966Z,26.34
2023-09-28T12:07:07.759Z,26.39
2023-09-28T12:08:47.400Z,26.47
2023-09-28T12:10:27.178Z,26.52
2023-09-28T12:12:06.954Z,26.56
2023-09-28T12:13:46.918Z,26.62
2023-09-28T12:15:26.743Z,26.68
2023-09-28T12:17:06.474Z,26.72
2023-09-28T12:18:46.299Z,26.75
2023-09-28T12:20:25.835Z,26.82
2023-09-28T12:22:05.629Z,26.84
2023-09-28T12:23:45.607Z,26.89
2023-09-28T12:25:25.114Z,26.97
2023-09-28T12:27:04.971Z,27.02
2023-09-28T12:28:44.793Z,27.08
2023-09-28T12:30:24.418Z,27.08
2023-09-28T12:32:04.190Z,27.16
2023-09-28T12:33:44.031Z,27.18
2023-09-28T12:35:23.785Z,27.23
2023-09-28T12:37:03.498Z,27.26
2023-09-28T12:38:43.366Z,27.32
2023-09-28T12:40:23.038Z,27.36
2023-09-28T12:42:02.804Z,27.42
2023-09-28T12:43:42.594Z,27.46
2023-09-28T12:45:22.362Z,27.49
2023-09-28T12:47:02.146Z,27.52
2023-09-28T12:48:41.902Z,27.57
2023-09-28T12:50:21.650Z,27.6
2023-09-28T12:52:01.440Z,27.66
2023-09-28T12:53:41.201Z,27.67
2023-09-28T12:55:20.972Z,27.73
2023-09-28T12:57:00.743Z,27.74
2023-09-28T12:58:40.605Z,27.78
2023-09-28T13:00:20.283Z,27.81
2023-09-28T13:02:00.061Z,27.85
2023-09-28T13:03:39.832Z,27.88
2023-09-28T13:05:19.596Z,27.93
2023-09-28T13:06:59.370Z,27.95
2023-09-28T13:08:39.136Z,27.98
2023-09-28T13:10:18.925Z,28.03
2023-09-28T13:11:58.699Z,28.04
2023-09-28T13:13:38.450Z,28.09
2023-09-28T13:15:18.229Z,28.13
2023-09-28T13:16:57.990Z,28.14
2023-09-28T13:18:37.777Z,28.16
2023-09-28T13:20:17.551Z,28.2
2023-09-28T13:21:57.298Z,28.24
2023-09-28T13:23:37.067Z,28.26
2023-09-28T13:25:16.859Z,28.29
2023-09-28T13:26:56.620Z,28.32
2023-09-28T13:28:36.422Z,28.35
2023-09-28T13:30:16.166Z,28.39
2023-09-28T13:31:55.950Z,28.41
2023-09-28T13:33:35.794Z,28.44
2023-09-28T13:35:15.456Z,28.49
2023-09-28T13:36:55.236Z,28.5
2023-09-28T13:38:35.006Z,28.56
2023-09-28T13:40:14.779Z,28.59
2023-09-28T13:41:54.546Z,28.62
2023-09-28T13:43:34.313Z,28.64
2023-09-28T13:45:14.097Z,28.67
2023-09-28T13:46:53.869Z,28.69
2023-09-28T13:48:33.638Z,28.74
2023-09-28T13:50:13.468Z,28.79
2023-09-28T13:51:53.213Z,28.8
2023-09-28T13:53:32.946Z,28.82
2023-09-28T13:55:12.847Z,28.85
2023-09-28T13:56:52.512Z,28.87
2023-09-28T13:58:32.258Z,28.93
2023-09-28T14:00:12.105Z,28.94
2023-09-28T14:01:51.776Z,28.97
2023-09-28T14:03:31.558Z,29.02
2023-09-28T14:05:11.345Z,29.02
2023-09-28T14:06:51.107Z,29.03
2023-09-28T14:08:30.928Z,29.09
2023-09-28T14:10:10.646Z,29.08
2023-09-28T14:11:50.432Z,29.15
2023-09-28T14:13:30.275Z,29.15
2023-09-28T14:15:10.079Z,29.2
2023-09-28T14:16:49.747Z,29.19
2023-09-28T14:18:29.528Z,29.25
2023-09-28T14:20:09.291Z,29.25
2023-09-28T14:21:49.188Z,29.28
2023-09-28T14:23:28.813Z,29.3
2023-09-28T14:25:08.580Z,29.34
2023-09-28T14:26:48.349Z,29.38
2023-09-28T14:28:28.114Z,29.38
2023-09-28T14:30:07.887Z,29.41
2023-09-28T14:31:47.692Z,29.44
2023-09-28T14:33:27.429Z,29.48
2023-09-28T14:35:07.195Z,29.49
2023-09-28T14:36:46.974Z,29.52
2023-09-28T14:38:26.751Z,29.54
2023-09-28T14:40:06.583Z,29.55
2023-09-28T14:41:46.332Z,29.58
2023-09-28T14:43:26.048Z,29.61
2023-09-28T14:45:05.820Z,29.62
2023-09-28T14:46:45.824Z,29.66
2023-09-28T14:48:25.385Z,29.68
2023-09-28T14:50:05.262Z,29.69
2023-09-28T14:51:44.929Z,29.74
2023-09-28T14:53:24.679Z,29.74
2023-09-28T14:55:04.461Z,29.77
2023-09-28T14:56:44.240Z,29.78
2023-09-28T14:58:23.995Z,29.81
2023-09-28T15:00:03.759Z,29.84
2023-09-28T15:01:43.554Z,29.87
2023-09-28T15:03:23.373Z,29.89
2023-09-28T15:05:03.070Z,29.91
2023-09-28T15:06:42.852Z,29.92
2023-09-28T15:08:22.609Z,29.93
2023-09-28T15:10:02.386Z,29.94
2023-09-28T15:11:42.156Z,29.96
2023-09-28T15:13:21.922Z,29.96
2023-09-28T15:15:01.692Z,29.98
2023-09-28T15:16:41.458Z,29.97
2023-09-28T15:18:21.229Z,29.98
2023-09-28T15:20:01.007Z,30
2023-09-28T15:21:40.783Z,30.04
2023-09-28T15:23:20.555Z,30.04
2023-09-28T15:25:00.327Z,30.06
2023-09-28T15:26:40.120Z,30.06
2023-09-28T15:28:19.866Z,30.06
2023-09-28T15:29:59.628Z,30.07
2023-09-28T15:31:39.402Z,30.1
2023-09-28T15:33:19.188Z,30.11
2023-09-28T15:34:58.952Z,30.08
2023-09-28T15:36:38.708Z,30.09
2023-09-28T15:38:18.484Z,30.1
2023-09-28T15:39:58.266Z,30.12
2023-09-28T15:41:38.027Z,30.1
2023-09-28T15:43:17.792Z,30.14
2023-09-28T15:44:57.567Z,30.11
2023-09-28T15:46:37.339Z,30.13
2023-09-28T15:48:17.102Z,30.12
2023-09-28T15:49:56.880Z,30.12
2023-09-28T15:51:36.658Z,30.12
2023-09-28T15:53:16.404Z,30.13
2023-09-28T15:54:56.175Z,30.14
2023-09-28T15:56:42.891Z,30.15
2023-09-28T15:58:15.716Z,30.15
2023-09-28T15:59:55.521Z,30.13
2023-09-28T16:01:35.265Z,30.13
2023-09-28T16:03:15.026Z,30.13
2023-09-28T16:04:54.807Z,30.09
2023-09-28T16:06:34.586Z,30.12
2023-09-28T16:08:14.373Z,30.09
2023-09-28T16:11:33.878Z,30.07
2023-09-28T16:13:13.657Z,30.08
2023-09-28T16:14:53.451Z,30.07
2023-09-28T16:16:33.190Z,30.04
2023-09-28T16:18:12.974Z,30.03
2023-09-28T16:19:52.741Z,30
2023-09-28T16:21:32.591Z,30
2023-09-28T16:23:12.279Z,29.97
2023-09-28T16:24:52.054Z,29.95
2023-09-28T16:26:31.805Z,29.94
2023-09-28T16:28:11.597Z,29.93
2023-09-28T16:29:51.356Z,29.89
2023-09-28T16:31:31.126Z,29.86
2023-09-28T16:33:10.895Z,29.83
2023-09-28T16:34:50.675Z,29.8
2023-09-28T16:36:30.441Z,29.79
2023-09-28T16:38:10.210Z,29.73
2023-09-28T16:39:49.989Z,29.69
2023-09-28T16:41:29.741Z,29.65
2023-09-28T16:43:09.519Z,29.61
2023-09-28T16:44:49.271Z,29.58
2023-09-28T16:46:29.053Z,29.55
2023-09-28T16:48:08.848Z,29.51
2023-09-28T16:49:57.713Z,29.45
2023-09-28T16:51:28.350Z,29.41
2023-09-28T16:53:08.195Z,29.39
2023-09-28T16:54:47.893Z,29.34
2023-09-28T16:56:27.662Z,29.28
2023-09-28T16:58:07.419Z,29.23
2023-09-28T16:59:47.204Z,29.2
2023-09-28T17:01:26.963Z,29.17
2023-09-28T17:04:46.505Z,29.07
2023-09-28T17:06:26.268Z,29.05
2023-09-28T17:08:06.040Z,28.99
2023-09-28T17:09:45.799Z,28.95
2023-09-28T17:11:25.577Z,28.9
2023-09-28T17:13:05.350Z,28.85
2023-09-28T17:14:45.096Z,28.79
2023-09-28T17:16:24.875Z,28.73
2023-09-28T17:18:04.634Z,28.66
2023-09-28T17:19:44.405Z,28.6
2023-09-28T17:21:24.174Z,28.55
2023-09-28T17:23:03.946Z,28.51
2023-09-28T17:24:43.703Z,28.43
2023-09-28T17:26:23.472Z,28.39
2023-09-28T17:28:03.294Z,28.31
2023-09-28T17:29:43.019Z,28.25
2023-09-28T17:31:22.891Z,28.2
2023-09-28T17:33:02.541Z,28.14
2023-09-28T17:34:42.311Z,28.08
2023-09-28T17:36:22.075Z,28.02
2023-09-28T17:38:01.889Z,27.97
2023-09-28T17:39:41.622Z,27.9
2023-09-28T17:41:21.384Z,27.87
2023-09-28T17:43:01.153Z,27.8
2023-09-28T17:44:40.930Z,27.73
2023-09-28T17:46:20.702Z,27.68
2023-09-28T17:48:00.518Z,27.63
2023-09-28T17:49:40.238Z,27.56
2023-09-28T17:51:19.992Z,27.53
2023-09-28T17:52:59.787Z,27.47
2023-09-28T17:54:39.545Z,27.42
2023-09-28T17:56:19.295Z,27.35
2023-09-28T17:57:59.076Z,27.3
2023-09-28T17:59:38.852Z,27.24
2023-09-28T18:01:18.604Z,27.2
2023-09-28T18:02:58.368Z,27.14
2023-09-28T18:04:38.161Z,27.09
2023-09-28T18:06:17.906Z,27.04
2023-09-28T18:07:57.679Z,26.99
2023-09-28T18:09:37.441Z,26.94
2023-09-28T18:11:17.213Z,26.9
2023-09-28T18:12:56.985Z,26.84
2023-09-28T18:14:36.766Z,26.8
2023-09-28T18:16:16.527Z,26.75
2023-09-28T18:17:56.286Z,26.7
2023-09-28T18:19:36.073Z,26.67
2023-09-28T18:21:15.826Z,26.59
2023-09-28T18:22:55.597Z,26.56
2023-09-28T18:24:35.365Z,26.5
2023-09-28T18:26:15.123Z,26.46
2023-09-28T18:27:54.896Z,26.41
2023-09-28T18:29:34.658Z,26.38
2023-09-28T18:31:14.544Z,26.32
2023-09-28T18:32:54.188Z,26.28
2023-09-28T18:34:33.987Z,26.23
2023-09-28T18:36:13.817Z,26.18
2023-09-28T18:37:53.489Z,26.13
2023-09-28T18:39:33.340Z,26.09
2023-09-28T18:41:13.084Z,26.03
2023-09-28T18:42:52.802Z,26.01
2023-09-28T18:44:32.555Z,25.96
2023-09-28T18:46:12.329Z,25.9
2023-09-28T18:47:52.102Z,25.87
2023-09-28T18:49:31.851Z,25.82
2023-09-28T18:51:11.648Z,25.78
2023-09-28T18:52:51.416Z,25.72
2023-09-28T18:54:31.161Z,25.68
2023-09-28T18:56:10.935Z,25.65
2023-09-28T18:57:50.688Z,25.59
2023-09-28T18:59:30.463Z,25.56
2023-09-28T19:01:10.243Z,25.51
2023-09-28T19:02:49.997Z,25.48
2023-09-28T19:04:29.842Z,25.42
2023-09-28T19:06:09.546Z,25.38
2023-09-28T19:07:49.326Z,25.36
2023-09-28T19:09:29.070Z,25.3
2023-09-28T19:11:08.833Z,25.25
2023-09-28T19:12:48.658Z,25.22
2023-09-28T19:14:28.381Z,25.17
2023-09-28T19:16:08.146Z,25.13
2023-09-28T19:17:47.934Z,25.08
2023-09-28T19:19:27.674Z,25.04
2023-09-28T19:21:07.444Z,25.02
2023-09-28T19:22:47.220Z,24.96
2023-09-28T19:24:26.989Z,24.94
2023-09-28T19:26:06.753Z,24.9
2023-09-28T19:27:46.702Z,24.84
2023-09-28T19:29:26.295Z,24.81
2023-09-28T19:31:06.062Z,24.78
2023-09-28T19:32:45.881Z,24.74
2023-09-28T19:34:25.607Z,24.7
2023-09-28T19:36:05.377Z,24.66
2023-09-28T19:37:45.129Z,24.61
2023-09-28T19:39:24.890Z,24.59
2023-09-28T19:41:04.653Z,24.53
2023-09-28T19:42:44.451Z,24.51
2023-09-28T19:44:24.190Z,24.48
2023-09-28T19:46:03.960Z,24.42
2023-09-28T19:47:43.724Z,24.39
2023-09-28T19:49:23.712Z,24.36
2023-09-28T19:51:03.269Z,24.33
2023-09-28T19:52:43.025Z,24.28
2023-09-28T19:54:22.800Z,24.24
2023-09-28T19:56:02.582Z,24.21
2023-09-28T19:57:42.331Z,24.17
2023-09-28T19:59:22.096Z,24.13
2023-09-28T20:01:01.869Z,24.1
2023-09-28T20:02:41.627Z,24.08
2023-09-28T20:04:21.401Z,24.04
2023-09-28T20:06:01.168Z,24.01
2023-09-28T20:07:40.931Z,23.97
2023-09-28T20:09:20.710Z,23.93
2023-09-28T20:11:00.482Z,23.91
2023-09-28T20:12:40.247Z,23.89
2023-09-28T20:14:20.006Z,23.85
2023-09-28T20:15:59.790Z,23.82
2023-09-28T20:17:39.553Z,23.77
2023-09-28T20:19:19.311Z,23.75
2023-09-28T20:20:59.091Z,23.72
2023-09-28T20:22:38.847Z,23.7
2023-09-28T20:24:18.609Z,23.66
2023-09-28T20:25:58.380Z,23.62
2023-09-28T20:27:38.158Z,23.58
2023-09-28T20:29:17.928Z,23.54
2023-09-28T20:30:57.688Z,23.53
2023-09-28T20:32:37.453Z,23.48
2023-09-28T20:34:17.220Z,23.45
2023-09-28T20:35:56.983Z,23.42
2023-09-28T20:37:36.763Z,23.39
2023-09-28T20:39:16.530Z,23.35
2023-09-28T20:40:56.290Z,23.35
2023-09-28T20:42:36.103Z,23.29
2023-09-28T20:44:15.827Z,23.25
2023-09-28T20:45:55.586Z,23.23
2023-09-28T20:47:35.369Z,23.2
2023-09-28T20:49:15.128Z,23.17
2023-09-28T20:50:54.902Z,23.15
2023-09-28T20:52:34.664Z,23.12
2023-09-28T20:54:14.432Z,23.09
2023-09-28T20:55:54.190Z,23.05
2023-09-28T20:57:33.983Z,23.02
2023-09-28T20:59:13.768Z,22.97
2023-09-28T21:00:53.561Z,22.96
2023-09-28T21:02:33.276Z,22.91
2023-09-28T21:04:13.030Z,22.88
2023-09-28T21:05:53.032Z,22.87
2023-09-28T21:07:32.597Z,22.83
2023-09-28T21:09:12.449Z,22.81
2023-09-28T21:10:52.113Z,22.77
2023-09-28T21:12:31.879Z,22.75
2023-09-28T21:14:11.634Z,22.71
2023-09-28T21:15:51.417Z,22.69
2023-09-28T21:17:31.358Z,22.68
2023-09-28T21:19:10.941Z,22.62
2023-09-28T21:20:50.727Z,22.6
2023-09-28T21:22:30.475Z,22.57
2023-09-28T21:24:10.265Z,22.54
2023-09-28T21:25:50.023Z,22.52
2023-09-28T21:27:29.900Z,22.51
2023-09-28T21:29:09.567Z,22.48
2023-09-28T21:30:49.336Z,22.43
2023-09-28T21:32:29.110Z,22.43
2023-09-28T21:34:08.886Z,22.4
2023-09-28T21:35:48.638Z,22.35
2023-09-28T21:37:28.486Z,22.33
2023-09-28T21:39:08.163Z,22.31
2023-09-28T21:40:47.957Z,22.29
2023-09-28T21:42:27.840Z,22.27
2023-09-28T21:44:07.462Z,22.22
2023-09-28T21:45:47.222Z,22.22
2023-09-28T21:47:27.136Z,22.19
2023-09-28T21:49:06.779Z,22.15
2023-09-28T21:50:46.662Z,22.12
2023-09-28T21:52:26.340Z,22.11
2023-09-28T21:54:06.067Z,22.07
2023-09-28T21:55:45.858Z,22.06